العودة   :: Flying Way :: > ._][_ سـاحة المطـار والطائرات Airport and Aircraft's yard _][_. > السلامة الجوية Flight Safety
تحديث الصفحة [أخبـار] هبوط اضطراري لطائرة روسية في حقل ذرة
الملاحظات

السلامة الجوية Flight Safety   متابعة أخبار حوادث الطيران وتحليل المعلومات التي أدت إليها. راجع فهرس قسم  السلامة الجوية

أدوات الموضوع إبحث في الموضوع
الصورة الرمزية نصف الدنيا
كابتن طيار اول
قديم 15-08-2019, 11:35 AM   رقم المشاركة : [ 1 ]   
مشاهدة ملفه الشخصي
 
 
 
 
تم شكره 101 مرة في 58 مشاركة
نصف الدنيا is infamous around these partsنصف الدنيا is infamous around these partsنصف الدنيا is infamous around these partsنصف الدنيا is infamous around these partsنصف الدنيا is infamous around these partsنصف الدنيا is infamous around these parts
معدل تقييم المستوى: 0
Exclamation هبوط اضطراري لطائرة روسية في حقل ذرة

هبطت طائرة ركاب روسية اضطراريا في حقل ذرة قرب العاصمة موسكو، الخميس، بعد وقت قصير من إقلاعها بعدما دخلت طيور في محركي الطائرة، مما أسفر عن إصابة 23 شخصا على الأقل، وفقا لمسؤولين روس.

وذكرت الوكالة الاتحادية للنقل الجوي (روسافياتسيا) أن طائرة من طراز إيرباص 321 تابعة لشركة أورال للخطوط الجوية كانت تقل 233 شخصا اصطدمت بسرب من طيور النورس بعد الإقلاع، مما تسبب في تعطيل محركيها، وأجبر طاقمها على الهبوط في حقل على بعد نحو كيلومتر من مطار جوكوفسكي الدولي في جنوب شرق موسكو.

التوقيع نصف الدنيا
4 أعضاء قالوا شكراً لـ نصف الدنيا على المشاركة المفيدة:
AboAbdulla (15-08-2019), محمد احمد عسيري (17-08-2019), alzaiem (16-08-2019), الطيران العمانـي (15-08-2019)
قديم 17-08-2019, 04:57 PM   رقم المشاركة : [ 2 ]   
محمد احمد عسيري
Flying Way
الصورة الرمزية محمد احمد عسيري
Exclamation رد: هبوط اضطراري لطائرة روسية في حقل ذرة

Accident: Ural A321 at Moscow on Aug 15th 2019, bird strike into both engines forces landing in corn field


An Ural Airlines Airbus A321-200, registration VQ-BOZ performing flight U6-178 from Moscow Zhukovsky (Russia) to Simferopol (Ukraine) with 226 passengers and 7 crew, was in the initial climb through 750 feet out of Zkukovsky's runway 12 at about 06:15L (03:15Z) when the aircraft flew through a flock of birds and ingested birds into both engines (CFM56). Both engines failed, one emitting noises as if the engine spools up and down, forcing the crew to stop the climb at 750 feet and land the aircraft in a corn field about 2.77nm past the runway with gear retracted (Approximate position N55.512 E38.252). The occupants of the aircraft evacuated via slides, there were 10 injuries (including three children). The aircraft sustained substantial damage.

The airline reported the aircraft received a large bird hit when departing Zhukovsky and made a forced landing. Passengers and crew were not injured.

Russia's Emergency Ministry reported 226 passengers including 6 children and 7 crew were on board, all evacuated. 10 passengers including 3 children needed medical attention. The aircraft was found outside the airport, the right hand engine was smoking but no fires, no fuel leaking, the cabin was inspected for people inside, the engines were sprayed for cooling. Eight busses were deployed to the accident site to return the passengers to Zhukovsky Airport.

Russia's Ministry of Transport reported the aircraft suffered a bird strike into both engines while flying through a flock of sea gulls and landed in a field more than 1km from the airport. The aircraft landed gear up, the crew shut both engines down just prior to landing. A special commission was set up to investigate the accident. The cause of the forced landing was the failure of the right hand engine, that caught fire following a bird strike.

Rosaviatsia reported right after becoming airborne the aircraft collided with a flock of sea gulls, their entry into the engines caused significant interruptions in their work. The crew decided to land straight ahead. The forced landing took place in a corn field between middle and outer marker (of the ILS landing system opposite direction). The aircraft landed with the gear retracted, both engines were shut down just prior to touch down. All 226 passengers and 7 crew were evacuated via slides. Affected passengers were promptly taken to a medical facility in Zhukovsky, the other passengers were taken back to Zhukovsky Airport.

States Prosecution have opened a criminal investigation.

Russia's MAK have opened an investigation.

The flight crew told Russian media the problem began right after takeoff when a bird hit the left hand engine causing it to fail completely, shortly followed by another bird strike into the right hand engine which subsequently provided insufficient thrust to remain airborne. The captain took control and landed the aircraft in an open field.

The status of Crimea and Simferopol is disputed. According to international law and United Nations the Crimea belong to the Ukraine although Russia annexed Crimea in 2014.

Metars:
UUBW 150500Z 14004MPS CAVOK 20/17 Q1007 R30/010060 NOSIG=
UUBW 150430Z 12003MPS CAVOK 18/16 Q1008 R30/210250 NOSIG=
UUBW 150400Z 12003MPS 9999 FEW009 17/15 Q1008 R30/210250 NOSIG=
COR UUBW 150330Z 11004MPS 9000 FEW009 16/15 Q1008 R30/210250 NOSIG=
UUBW 150300Z 11004MPS CAVOK 15/14 Q1008 R30/210250 NOSIG=
UUBW 150230Z 11004MPS CAVOK 15/14 Q1009 R30/210250 NOSIG=
UUBW 150200Z 10004MPS CAVOK 16/14 Q1009 R30/210250 NOSIG=
UUBW 150130Z 11005MPS 9999 SCT040CB 16/14 Q1009 R30/210250 NOSIG=
UUBW 150100Z 11006MPS 7000 -TSRA SCT014CB 16/15 Q1009 R30/010060 NOSIG=
UUBW 150030Z 11005MPS 090V200 9999 TS BKN057CB 15/13 Q1010 R30/010060 TEMPO 2500 -TSRA BKN015CB=







http://avherald.com/h?article=4cb94927&opt=0







https://aviation-safety.net/database...?id=20190815-0
  إقتباس
الأعضاء الذين قالوا شكراً لـ محمد احمد عسيري على المشاركة المفيدة:
alzaiem (18-08-2019)
قديم 17-08-2019, 04:58 PM   رقم المشاركة : [ 3 ]   
محمد احمد عسيري
Flying Way
الصورة الرمزية محمد احمد عسيري
Exclamation رد: هبوط اضطراري لطائرة روسية في حقل ذرة

الصندوق الأسود للطائرة الروسية يكشف التفاصيل المرعبة قبل الهبوط بسلام‎

كشفت رموز الصندوق الأسود لطائرة ”إيرباص 321″ التي هبطت اضطراريًا، الخميس الماضي، في حقل ذرة بضواحي موسكو، تفاصيل الدقائق الأخيرة المرعبة قبل الهبوط بسلام في حقل الذرة بالقرب من مطار ”جوكوفسكي“ على العاصمة الروسية.

ونشرت قناة ”Baza“ على تطبيق ”تليغرام“، السبت، ”نسخة من المفاوضات بين برج المراقبة وقائد الطائرة ضمير يوسوبوف ومساعده غيورغي مورزين، اللذين نفذا الهبوط الاضطراري بنجاح“.

وأوضحت المفاوضات المسجلة في الصندوق الأسود أن ”سرعة بديهة الطيارين، وشجاعتهما، واتخاذهما القرار الصائب في اللحظة المناسبة كان وراء إنقاذ حياة 226 راكبًا، و7 من أفراد طاقم الطائرة“.


ويتضح من البيانات أن ”مراقبي الحركة الجوية في مطار جوكوفسكي الذي أقلعت منه الطائرة، حذروا الطاقم قبل الإقلاع عند الساعة 06:12 بتوقيت موسكو من ”تحليق طيور منفردة“ في الأجواء القريبة من المطار“.

وبعد دقيقتين فقط من الإقلاع، أي في الساعة 06:14، أرسل الطياران إشارة طوارئ للمطار، وأبلغا عن فشل محرك واحد وطلبا الإذن بالعودة إلى المطار، ولكن بعد دقيقة واحدة فقط غيرا رأيهما“، وأبلغا المراقب الجوي ”تجهيز خدمة الإسعاف والإنقاذ“ في الساعة 06:15.

وعندما سئلا بعد دقيقة عن ارتفاع الطائرة وعدد الركاب على متنها، أجابا بأنها هبطت ”خارج المدرج“، وأن منارة الطوارئ لا تعمل.. وأضاف الطياران: ”لا تصرفوا انتباهنا، نحن نقوم بإجلاء الركاب الآن“.

وفي حوالي الساعة 06:19 تم إجلاء جميع الركاب، أي بعد أقل من 5 دقائق من هبوطها الاضطراري، ولم يبلغ الطاقم عن وقوع إصابات بين من كانوا على متنها.

وألزم اصطدام الطائرة التي كانت متجهة من موسكو إلى سيمفيروبول بسرب من طيور النورس طياريها على الهبوط الاضطراري بعد وقت قصير من إقلاعها بالقرب من مطار جوكوفسكي صباح الخميس الماضي.

وكان على متن الطائرة 226 راكبًا، و7 من أفراد الطاقم أصيب منهم 76 شخصًا برضوض وخدوش بسيطة لم تستدع دخولهم المستشفى، وفقًا للبيانات الأولية.

وأمس الجمعة، وقّع الرئيس الروسي فلاديمير بوتين مرسومًا منح بموجبه كلا من الطيارين وسام ”بطل روسيا الاتحادية“، وأوسمة الشجاعة لجميع أفراد الطاقم.

https://www.eremnews.com/entertainme...idents/1928979
  إقتباس
الأعضاء الذين قالوا شكراً لـ محمد احمد عسيري على المشاركة المفيدة:
alzaiem (18-08-2019)
قديم 17-08-2019, 04:59 PM   رقم المشاركة : [ 4 ]   
محمد احمد عسيري
Flying Way
الصورة الرمزية محمد احمد عسيري
افتراضي رد: هبوط اضطراري لطائرة روسية في حقل ذرة

اقتباس: On the morning of August 15 the Ural Airlines plane made a hard landing on a field near the Moscow Zhukovsky Airport. After takeoff the plane collided with a flock of seagulls, after which both engines failed. The crew decided on an emergency landing and landed the plane in a corn field a in few kilometers from the airport. Thanks to the coordinated work of the crew the victims were avoided.

https://www.airliners.net/photo/Ural...4DbZ0tGA%3D%3D
  إقتباس
قديم 18-08-2019, 09:35 AM   رقم المشاركة : [ 5 ]   
محمد احمد عسيري
Flying Way
الصورة الرمزية محمد احمد عسيري
Searchgogle هبوط اضطراري لطائرة روسية في حقل ذرة

هبطت طائرة ركاب روسية اضطراريا في حقل ذرة قرب العاصمة موسكو، الخميس، وذلك بعد وقت قصير من إقلاعها بعدما دخلت طيور في محركي الطائرة، الأمر الذي هدد سلامة الركاب على متنها، وأثار تساؤلات حول احتمالات تسبب الطيور بحوادث جوية خطيرة.

وتسببت حادثة الهبوط الاضطراري للطائرة الروسية في حقل الذرة بإصابة أكثر من 20 شخصا على الأقل، وفقا لمسؤولين روس.

ولا يخلو تاريخ الطيران من حوادث ارتطام الطيور بالطائرات أو دخولها في محركات الطائرات، بما فيها الطائرات الحربية، بسبب قوة شفط الهواء، ولكن السؤال الذي يطرح نفسه هو "ما مدى شيوع ارتطام الطيور بطائرات الركاب أو الطائرات التجارية، وهل يمكن أن تتسبب بسقوطها؟"

وفقا لجمعية الطيارين البريطانيين، فإنه من النادر أن تكون مثل هذه الحوادث خطيرة، كما أنها حالات نادرة الحدوث، بحسب ما ذكرت صحيفة "تلغراف" البريطانية في تقرير نشرته سابقا.

ويقول أخصائي سلامة الطيران في جمعية الطيارين البريطانيين ستيفن لاندلس: "لقد صممت الطائرات وصنعت لتقاوم ارتطام الطيور"، مشيرا إلى أن الطيارين يخضعون لتدريب صارم لتمكينهم من التعامل مع مثل هذه الاحتمالات.

وأضاف لاندلس أنه خلال مسيرته المهنية الطويلة في مجال الطيران، شهد 10 حالات فقط لارتطام طيور بالطائرات، ولم تتسبب أي منها بإلحاق أضرار كبيرة في الطائرات.

وأوضح أنه في نصف هذه الحالات، وبسبب صغر حجم الطيور، لم يكن يدرك أن الطائرة التي كان يحلق بها ارتطمت بطائر إلا بعد أن يتفقد الطائرة بعد الهبوط.

من جهته، بيّن الطيار والمؤلف الأميركي باتريك سميث "كما هو متوقع، فقد تم تصميم مكونات الطائرة لتتحمل مثل هذه الآثار والأضرار"، مشيرا إلى وجود مقاطع فيديو على الإنترنت لاختبارات ارتطام الطيور بالزجاج الأمامي للطائرة، وما إلى ذلك.

وأوضح أنه عانى شخصيا من ارتطام الطيور بالطائرات التي كان يقودها، مشيرا إلى أن النتيجة، في أسوأ الأحوال، هي انثناء بسيط في بدن الطائرة.

وفي بعض الحالات، يتم امتصاص الطائر أو "شفطه" بواسطة محرك الطائرة، وفي هذه الحالة فإن الطائر البائس يهلك ويتمزق بفعل حركة مراوح المحرك.

غير أنه حدث مثل هذا الأمر مع الطيور كبيرة الحجم، فربما يحلق ضرر كبير بمحرك الطائرة، بحسب الخبراء.

وأبرز مثال على مثل هذه الحوادث الخطيرة الرحلة رقم 1549 التابعة للخطوط الجوية الأميركية، التي وقعت في العام 2009، والتي صار يطلق عليها اسم "معجزة على نهر هدسون".

وتتمثل هذه المعجزة بهبوط طائرة إير باص إيه 320 على النهر بعد 5 دقائق من إقلاعها في 15 يناير 2009، حيث ارتطمت بعد 90 ثانية من إقلاعها، وبينما كانت على ارتفاع 980 مترا، تعرضت الطائرة لضربة مزدوجة بسبب الطيور، الأمر الذي أدى إلى فقدان قائد الطائرة السيطرة على المحركين، ولم يتمكن من العودة إلى المطار، فاضطر إلى الهبوط على نهر هدسون، وقد نجا جميع الركاب.

بعد حادثة نهر هدسون، لجأت المطارات في نيويورك إلى إعدام المئات من طيور الإوز لمنع تكرار الحادثة، وتسبب هذا الأمر بإثارة غضب علماء الأحياء في الحياة البرية في عام 2013.

وبحسب جمعية الطيارين البريطانيين فإن بعض التدابير الأخرى استخدمت بنجاح في مختلف المطارات، مثل إطلاق نداءات الاستغاثة بواسطة مكبرات للصوت، وإشعال النار، وحتى استخدام الطيور الجارحة في مراقبة أسراب الطيور ومنعها من الاقتراب من المطارات.


https://akhbaar24.argaam.com/article...B1%D8%A7%D8%AA
  إقتباس
قديم 18-08-2019, 09:37 AM   رقم المشاركة : [ 6 ]   
محمد احمد عسيري
Flying Way
الصورة الرمزية محمد احمد عسيري
Exclamation هبوط اضطراري لطائرة روسية في حقل ذرة

بعد إنقاذهما أكثر من 226 راكباً كانوا على متن الطائرة، منح الرئيس الروسي، فلاديمير بوتين، وسام "بطل روسيا" لطياري رحلة شركة "أورال إيرلانز"، والتي هبطت اضطرارياً بسلام في حقول الذرة بضواحي موسكو.

وأعلن بوتين في اجتماع رسمي أنه منح أوسمة لطاقم الطائرة، مشيراً إلى أن قائد الطائرة، دامير يوسوبوف، والطيار المساعد، غيورغي مورزين، حصلا على لقب "بطل روسيا"، فيما مُنح أعضاء الطاقم الباقين وسامَ الشجاعة.

يُذكر أن طائرة الركاب اضطرت للهبوط في الحقول، بعد تعطل محركيها بسبب اصطدامها بسربٍ من الطيور أثناء الإقلاع، وتضررها جراء ذلك، وهبط الطيار بها بدون عجلات، حتى لا تحتك بالمزروعات وتنقلب.




https://akhbaar24.argaam.com/article...A8%D8%A7%D9%8B
  إقتباس
قديم 15-09-2019, 08:56 AM   رقم المشاركة : [ 7 ]   
محمد احمد عسيري
Flying Way
الصورة الرمزية محمد احمد عسيري
Eyeglasses رد: هبوط اضطراري لطائرة روسية في حقل ذرة

هذا روسي مبدع بمجال الطيران التشبيهي وعمل سيناريو متكامل عن الحادثة

  إقتباس
الأعضاء الذين قالوا شكراً لـ محمد احمد عسيري على المشاركة المفيدة:
alzaiem (15-09-2019)
إضافة رد

«     تحطم طائرة شحن من طراز Convair CV-440F اصطدمت بسيارات قرب مطار فى ولاية أوهايو الأمريكية ومصرع طاقمها بالحادث   |    حوادث الطيران عام 2019م    »


الذين يشاهدون محتوى الموضوع الآن : 1 ( الأعضاء 0 والزوار 1)
 
أدوات الموضوع إبحث في الموضوع
إبحث في الموضوع:

البحث المتقدم

الانتقال السريع

الساعة الآن 05:04 PM.
Powered by vBulletin® Version 3.8.9
Copyright ©2000 - 2019, vBulletin Solutions, Inc.
حق العلم والمعرفة يعادل حق الحياة للأنسان - لذا نحن كمسؤلين في الشبكة متنازلون عن جميع الحقوق
All trademarks and copyrights held by respective owners. Member comments are owned by the poster.
خط الطيران 2004-2019